world map with EMK marked

EMK - Airport

This information may not be accurate or current and is not valid for navigation or flight planning. No warranty of fitness for any purpose is made or implied.

flag of Alaskaflag of United States

Donate via PayPal

Additional information is available on the NEW Great Circle Mapper

Location
City:  Emmonak, Alaska, United States
ICAO / IATA:PAEM / EMK
FAA:ENM

Details
Type:Airport (Airfield)
Use:Public/Civil
Latitude:62°47'10"N (62.786139)
Longitude:164°29'27"W (-164.490749)
Datum:WGS 1984
Elevation:16 ft (5 m)
Runways:1
Longest:4601 × 100 ft (1402 × 30.5 m)

Time
Timezone:UTC+25:08 (DST+26:08)
Local Time:

Weather
METAR:PAEM  011336Z 22006KT 10SM OVC041 05/01 A3034 RMK AO1

Related Locations
Nearby:
Farthest:FAME: 11031 mi / 17752 km
Marion Island, Prince Edward Islands, ZA

Find:

   beyond  
but within

Other Information
Maps:
Links:
Sources:

  

Sectional Chart

Flight Planning
at skyvector.com

 


Great Circle Mapper   Great Circle Mapper
Great Circle Mapper FAQ   Great Circle Mapper FAQ
  Karl's Home Page
KLSē   KLSē Home
   GC on Facebook
Airlines of the World   Airlines of the World
Donate via PayPal


Copyright © 2004-2014, Karl L. Swartz. All rights reserved.
All trademarks mentioned herein belong to their respective owners.

Please see credits for attribution and copyright information.

Karl Swartz <karl@kls2.com>
  Powered by FreeBSD
Valid HTML 4.01!
Labeled with ICRA
hCard Microformat
Geo Microformat